createdAt,value
2017-05-15T00:00:02.815Z,1012.74
2017-05-15T00:10:03.111Z,1012.78
2017-05-15T00:20:02.932Z,1012.79
2017-05-15T00:30:02.386Z,1012.91
2017-05-15T00:40:02.942Z,1012.94
2017-05-15T00:50:02.779Z,1012.81
2017-05-15T01:00:03.237Z,1012.89
2017-05-15T01:10:03.389Z,1013.17
2017-05-15T01:20:03.213Z,1013.15
2017-05-15T01:30:02.700Z,1013.22
2017-05-15T01:40:03.157Z,1013.4
2017-05-15T01:50:02.570Z,1013.43
2017-05-15T02:00:03.070Z,1013.6
2017-05-15T02:10:03.077Z,1013.76
2017-05-15T02:20:03.142Z,1013.81
2017-05-15T02:30:02.636Z,1013.88
2017-05-15T02:40:03.128Z,1014.01
2017-05-15T02:50:02.647Z,1014.05
2017-05-15T03:00:03.101Z,1014.15
2017-05-15T03:10:02.713Z,1014.24
2017-05-15T03:20:02.578Z,1014.27
2017-05-15T03:30:03.067Z,1014.38
2017-05-15T03:40:03.110Z,1014.37
2017-05-15T03:50:03.061Z,1014.43
2017-05-15T04:00:02.521Z,1014.49
2017-05-15T04:10:02.880Z,1014.67
2017-05-15T04:20:03.118Z,1014.83
2017-05-15T04:30:03.363Z,1014.92
2017-05-15T04:40:02.565Z,1015.08
2017-05-15T04:50:02.567Z,1014.99
2017-05-15T05:00:02.991Z,1015.08
2017-05-15T05:10:02.853Z,1015.31
2017-05-15T05:20:03.206Z,1015.26
2017-05-15T05:30:02.599Z,1015.4
2017-05-15T05:40:02.957Z,1015.53
2017-05-15T05:50:02.971Z,1015.49
2017-05-15T06:00:02.962Z,1015.81
2017-05-15T06:10:03.734Z,1015.9
2017-05-15T06:20:03.064Z,1015.88
2017-05-15T06:30:03.658Z,1016.06
2017-05-15T06:40:05.005Z,1016.12
2017-05-15T06:50:03.097Z,1016.3
2017-05-15T07:00:02.360Z,1016.38
2017-05-15T07:10:02.508Z,1016.38
2017-05-15T07:20:02.639Z,1016.21
2017-05-15T07:30:03.320Z,1016.29
2017-05-15T07:40:02.364Z,1016.3
2017-05-15T07:50:02.389Z,1016.34
2017-05-15T08:00:02.661Z,1016.39
2017-05-15T08:10:02.565Z,1016.42
2017-05-15T08:20:03.090Z,1016.53
2017-05-15T08:30:02.449Z,1016.54
2017-05-15T08:40:03.173Z,1016.57
2017-05-15T08:50:02.580Z,1016.68
2017-05-15T09:00:02.623Z,1016.7
2017-05-15T09:10:02.839Z,1016.68
2017-05-15T09:20:02.762Z,1016.85
2017-05-15T09:30:02.837Z,1016.82
2017-05-15T09:40:02.592Z,1016.84
2017-05-15T09:50:02.761Z,1016.91
2017-05-15T10:00:03.135Z,1017.16
2017-05-15T10:10:03.193Z,1017.19
2017-05-15T10:20:02.563Z,1017.25
2017-05-15T10:30:02.480Z,1017.05
2017-05-15T10:40:02.941Z,1016.93
2017-05-15T10:50:02.503Z,1017.16
2017-05-15T11:00:02.850Z,1017.2
2017-05-15T11:10:02.897Z,1017.14
2017-05-15T11:20:02.691Z,1016.97
2017-05-15T11:30:03.110Z,1016.93
2017-05-15T11:40:02.749Z,1016.97
2017-05-15T11:50:03.308Z,1016.87
2017-05-15T12:00:02.677Z,1016.72
2017-05-15T12:10:02.872Z,1016.78
2017-05-15T12:20:02.422Z,1016.83
2017-05-15T12:30:02.811Z,1016.84
2017-05-15T12:40:02.852Z,1016.74
2017-05-15T12:50:02.724Z,1016.7
2017-05-15T13:00:02.751Z,1016.75
2017-05-15T13:10:02.990Z,1016.83
2017-05-15T13:20:02.714Z,1016.83
2017-05-15T13:30:03.099Z,1016.67
2017-05-15T13:40:02.927Z,1016.66
2017-05-15T13:50:02.793Z,1016.54
2017-05-15T14:00:02.813Z,1016.53
2017-05-15T14:10:02.871Z,1016.55
2017-05-15T14:20:03.198Z,1016.63
2017-05-15T14:30:03.229Z,1016.47
2017-05-15T14:40:03.271Z,1016.47
2017-05-15T14:50:03.246Z,1016.41
2017-05-15T15:00:03.258Z,1016.43
2017-05-15T15:10:03.311Z,1016.39
2017-05-15T15:20:02.991Z,1016.35
2017-05-15T15:30:03.360Z,1016.18
2017-05-15T15:40:03.115Z,1016.16
2017-05-15T15:50:03.149Z,1016.17
2017-05-15T16:00:03.182Z,1016.21
2017-05-15T16:10:03.219Z,1016.13
2017-05-15T16:20:02.409Z,1016.21
2017-05-15T16:30:02.783Z,1016.18
2017-05-15T16:40:02.877Z,1016.23
2017-05-15T16:50:02.533Z,1016.26
2017-05-15T17:00:02.521Z,1016.29
2017-05-15T17:10:02.598Z,1016.24
2017-05-15T17:20:02.744Z,1016.32
2017-05-15T17:30:03.184Z,1016.38
2017-05-15T17:40:03.267Z,1016.39
2017-05-15T17:50:02.408Z,1016.38
2017-05-15T18:00:02.410Z,1016.39
2017-05-15T18:10:02.921Z,1016.41
2017-05-15T18:20:03.025Z,1016.41
2017-05-15T18:30:02.497Z,1016.6
2017-05-15T18:40:02.972Z,1016.72
2017-05-15T18:50:02.592Z,1016.78
2017-05-15T19:00:03.072Z,1016.88
2017-05-15T19:10:02.849Z,1017.01
2017-05-15T19:20:02.594Z,1017.05
2017-05-15T19:30:03.058Z,1017.22
2017-05-15T19:40:02.598Z,1017.17
2017-05-15T19:50:03.122Z,1017.18
2017-05-15T20:00:02.532Z,1017.16
2017-05-15T20:10:02.469Z,1017.26
2017-05-15T20:20:02.915Z,1017.28
2017-05-15T20:30:02.414Z,1017.18
2017-05-15T20:40:02.882Z,1017.05
2017-05-15T20:50:03.230Z,1017.02
2017-05-15T21:00:02.705Z,1017.11
2017-05-15T21:10:02.470Z,1017.18
2017-05-15T21:20:03.232Z,1017.25
2017-05-15T21:30:02.698Z,1017.22
2017-05-15T21:40:03.169Z,1017.18
2017-05-15T21:50:02.790Z,1017.1
2017-05-15T22:00:03.303Z,1017.14
2017-05-15T22:10:02.489Z,1017.19
2017-05-15T22:20:02.889Z,1017.13
2017-05-15T22:30:03.406Z,1017.2
2017-05-15T22:40:03.328Z,1017.32
2017-05-15T22:50:03.057Z,1017.39
2017-05-15T23:00:02.479Z,1017.22
2017-05-15T23:10:02.861Z,1017.31
2017-05-15T23:20:02.544Z,1017.25
2017-05-15T23:30:03.036Z,1017.27
2017-05-15T23:40:02.660Z,1017.05
2017-05-15T23:50:03.009Z,1017.03
